Northboro, Massachusetts
Current Conditions -  °F | °C
As of 12:54 AM on Sunday 26 Oct 2014 (Local Time) from KORH Reporting Station
Clear Clear  
Wind Chill: 51°   Ceiling: Unl
Heat Index: 51°   Visibility: 10mi
Dew Point: 43°   Wind: 16mph
Humidity: 74%   Direction: 280°W
Pressure: 29.49"   Gusts: NA
Location:  42.3229°N, 71.6469°W
Report Text: KORH 260454Z AUTO 28014KT 10SM CLR 11/06 A2949 RMK AO2 SLP989 T01060061 401560056
Loading
Personal Weather Stations






























Interactive Weather Map
Tropical Storm Tracking
New forecast layout! Learn more

10-Day Weather Forecast

Advertisements
Track Severe Weather on mobile